LTAD/ANK METAR and TAF weather

Enter ICAO airport designator
Station Type Date Time Source
LTAD METAR 2022/12/08 11:50 UTC NOAA

LTAD 081150Z 27007KT 230V310 7000 FEW040 12/03 Q1021 NOSIG RMK RWY29 26006KT 210V300


Station Type Date Time Source
LTAD Decoded METAR 2022/12/08 11:50 UTC NOAA

Ankara / Etimesgut, Turkey (LTAD) 39-57N 032-41E 806M
Dec 08, 2022 - 06:50 AM EST / 2022.12.08 1150 UTC
Wind: from the W (270 degrees) at 8 MPH (7 KT) (direction variable):0
Visibility: 4 mile(s):0
Sky conditions: mostly clear
Temperature: 53 F (12 C)
Dew Point: 37 F (3 C)
Relative Humidity: 54%
Pressure (altimeter): 30.15 in. Hg (1021 hPa)
ob: LTAD 081150Z 27007KT 230V310 7000 FEW040 12/03 Q1021 NOSIG RMK RWY29 26006KT 210V300
cycle: 12

Station Type Date Time Source
LTAD TAF UTC NOAA

Error!

Example: see airport list